»·PEaware :: N16RD L70-KSAN

N16RD :: L70-KSAN

FLIGHT INFORMATION

Flight Status: Arrived
Operator: Privately registered:
United States
More flights under this callsign
Pilot: Brett B. (12105)
Aircraft: CESSNA 172 SKYHAWK
(C172)
More flights by this aircraft type
Origin: L70 Agua Dulce
United States
Destination: KSAN San Diego Intl-Lindbergh
United States
More flights between these airports :: More routes between these airports
Route: +KL70 KSAN
File this flight plan on PilotEdge
Remarks:
Altitude:
(Current/Filed)
7,500ft
Speed:
(Current/Filed)
115kts
Departed: 04-Jan-19 09:07 PM
Arrived: 04-Jan-19 10:15 PM
Distance/Time
Traveled:
120nm/1:07
Distance/Time
To Go:
Arrived

Flight Plot

Page will automatically refresh every two minutes.

Flight plan parsing failed; only flown route is shown


Map Options




Map Legend


Flown Route
Filed Route
Departure Airport
Arrival Airport
Navaid (VOR, NDB)
Fix

Horizontal Profiles

Position Reports

Time Latitude Longitude Heading Altitude Ground
Speed
04-Jan-19 21:05 34.400345 -118.174829 138 6900ft 79kts
04-Jan-19 21:05 34.400345 -118.174829 138 6900ft 79kts
04-Jan-19 21:06 34.385153 -118.156014 139 7528ft 82kts
04-Jan-19 21:07 34.364460 -118.131162 138 7491ft 116kts
04-Jan-19 21:08 34.341405 -118.104893 139 7476ft 108kts
04-Jan-19 21:09 34.319953 -118.081819 139 7475ft 100kts
04-Jan-19 21:10 34.298730 -118.059909 139 7478ft 99kts
04-Jan-19 21:11 34.277545 -118.038684 139 7506ft 99kts
04-Jan-19 21:12 34.254680 -118.018962 139 7550ft 102kts
04-Jan-19 21:13 34.234938 -117.994611 124 7532ft 102kts
04-Jan-19 21:14 34.217386 -117.967798 115 7536ft 101kts
04-Jan-19 21:15 34.206342 -117.936802 114 7541ft 99kts
04-Jan-19 21:16 34.189208 -117.910956 135 7550ft 99kts
04-Jan-19 21:17 34.165757 -117.890385 139 7538ft 105kts
04-Jan-19 21:18 34.146667 -117.863376 128 7572ft 111kts
04-Jan-19 21:19 34.128160 -117.851141 217 7601ft 96kts
04-Jan-19 21:20 34.106764 -117.831622 133 7585ft 116kts
04-Jan-19 21:21 34.083685 -117.803247 137 7595ft 120kts
04-Jan-19 21:22 34.056634 -117.779257 150 7594ft 121kts
04-Jan-19 21:23 34.027349 -117.763933 164 7594ft 118kts
04-Jan-19 21:24 33.995750 -117.755761 174 7595ft 115kts
04-Jan-19 21:25 33.967732 -117.742852 112 7607ft 115kts
04-Jan-19 21:26 33.947399 -117.711732 132 7501ft 122kts
04-Jan-19 21:27 33.923200 -117.685046 157 7504ft 116kts
04-Jan-19 21:28 33.893118 -117.669937 160 7491ft 116kts
04-Jan-19 21:29 33.862476 -117.657005 164 7536ft 123kts
04-Jan-19 21:30 33.828525 -117.645234 166 7487ft 118kts
04-Jan-19 21:31 33.797157 -117.637274 188 7505ft 112kts
04-Jan-19 21:32 33.765932 -117.636549 164 7505ft 116kts
04-Jan-19 21:33 33.734956 -117.624433 164 7499ft 117kts
04-Jan-19 21:34 33.703046 -117.616507 174 7381ft 125kts
04-Jan-19 21:35 33.667203 -117.609692 170 6705ft 133kts
04-Jan-19 21:36 33.631256 -117.599541 169 6005ft 130kts
04-Jan-19 21:37 33.597505 -117.586983 130 5489ft 123kts
04-Jan-19 21:38 33.575781 -117.558520 131 5488ft 112kts
04-Jan-19 21:39 33.548899 -117.542359 165 5493ft 115kts
04-Jan-19 21:40 33.517333 -117.531277 169 5481ft 119kts
04-Jan-19 21:41 33.492205 -117.552147 224 5483ft 112kts
04-Jan-19 21:42 33.468348 -117.577067 223 5276ft 120kts
04-Jan-19 21:43 33.442704 -117.604106 223 4585ft 123kts
04-Jan-19 21:44 33.412427 -117.607519 149 3907ft 131kts
04-Jan-19 21:45 33.381881 -117.584627 149 3488ft 121kts
04-Jan-19 21:46 33.354374 -117.563830 149 3499ft 115kts
04-Jan-19 21:48 33.328629 -117.544348 149 3500ft 114kts
04-Jan-19 21:49 33.301634 -117.523932 149 3499ft 115kts
04-Jan-19 21:50 33.274611 -117.503480 149 3500ft 114kts
04-Jan-19 21:51 33.247660 -117.483127 149 3500ft 115kts
04-Jan-19 21:52 33.220641 -117.462738 149 3501ft 115kts
04-Jan-19 21:53 33.193300 -117.442103 148 3494ft 116kts
04-Jan-19 21:54 33.166007 -117.421525 149 3488ft 116kts
04-Jan-19 21:55 33.138889 -117.400995 149 3494ft 112kts
04-Jan-19 21:56 33.112474 -117.380983 149 3502ft 113kts
04-Jan-19 21:57 33.085951 -117.360904 149 3501ft 113kts
04-Jan-19 21:58 33.059531 -117.340781 149 3500ft 112kts
04-Jan-19 21:59 33.033450 -117.320340 149 3505ft 110kts
04-Jan-19 22:00 33.007462 -117.301239 153 3502ft 109kts
04-Jan-19 22:01 32.982203 -117.284359 155 3500ft 109kts
04-Jan-19 22:02 32.953821 -117.271925 163 3506ft 112kts
04-Jan-19 22:03 32.923856 -117.259369 163 3502ft 114kts
04-Jan-19 22:04 32.893736 -117.246805 163 3502ft 115kts
04-Jan-19 22:05 32.863449 -117.234327 163 3524ft 114kts
04-Jan-19 22:06 32.834570 -117.222791 163 3525ft 107kts
04-Jan-19 22:07 32.805715 -117.211134 163 3316ft 120kts
04-Jan-19 22:08 32.775458 -117.194836 125 2629ft 120kts
04-Jan-19 22:09 32.764853 -117.159496 104 2031ft 105kts
04-Jan-19 22:10 32.758504 -117.128405 126 1918ft 94kts
04-Jan-19 22:11 32.735618 -117.118674 185 1638ft 87kts
04-Jan-19 22:11 32.718714 -117.128531 259 1139ft 82kts
04-Jan-19 22:12 32.724865 -117.153685 283 592ft 80kts
04-Jan-19 22:13 32.730770 -117.178313 281 71ft 72kts
04-Jan-19 22:14 32.733895 -117.188094 34 18ft 15kts

Navigation Log

Ident Type
Flight plan parsing failed, navigation log unavailable